Time;durP1;ratioP1;P1;durP2;ratioP2;P2;SDS_P1;SDS_P2;PMS_P1;PMS_P2;Temp;Humidity;BMP_temperature;BMP_pressure;BME280_temperature;BME280_humidity;BME280_pressure;Samples;Min_cycle;Max_cycle;Signal;HPM_P1;HPM_P2
2022/03/28 00:01:58;;;;;;;;;;;;;;;15.12;93.44;98823.66;5057578;28;19971;-74
2022/03/28 00:04:25;;;;;;;;;;;;;;;15.14;93.38;98809.91;5039253;28;19929;-74
2022/03/28 00:06:51;;;;;;;;;;;;;;;15.10;93.49;98812.31;5059589;28;20027;-73
2022/03/28 00:09:18;;;;;;;;;;;;;;;15.09;93.48;98810.75;5060365;28;19925;-74
2022/03/28 00:11:46;;;;;;;;;;;;;;;15.11;93.62;98802.38;5058911;28;20241;-74
2022/03/28 00:14:12;;;;;;;;;;;;;;;15.11;93.32;98805.06;5043786;28;19929;-73
2022/03/28 00:16:38;;;;;;;;;;;;;;;15.11;93.06;98802.38;5041498;28;20226;-74
2022/03/28 00:19:05;;;;;;;;;;;;;;;15.09;93.03;98799.97;5057040;28;20012;-73
2022/03/28 00:21:31;;;;;;;;;;;;;;;15.03;92.94;98809.13;5057341;28;19967;-73
2022/03/28 00:23:58;;;;;;;;;;;;;;;14.70;95.64;98801.56;5042579;28;19959;-73
2022/03/28 00:26:24;;;;;;;;;;;;;;;14.63;96.01;98798.34;5060529;28;19960;-74
2022/03/28 00:28:52;;;;;;;;;;;;;;;14.62;96.51;98796.72;5058510;28;19964;-75
2022/03/28 00:31:18;;;;;;;;;;;;;;;14.37;98.57;98802.06;5057058;28;19925;-74
2022/03/28 00:33:45;;;;;;;;;;;;;;;14.01;100.00;98795.75;5040283;28;19997;-73
2022/03/28 00:36:11;;;;;;;;;;;;;;;13.65;100.00;98797.47;5060506;28;19967;-74
2022/03/28 00:38:38;;;;;;;;;;;;;;;13.38;100.00;98802.16;5042162;28;19931;-73
2022/03/28 00:41:05;;;;;;;;;;;;;;;13.30;100.00;98794.59;5056945;28;19929;-73
2022/03/28 00:43:31;;;;;;;;;;;;;;;13.09;100.00;98787.50;5057892;28;19924;-73
2022/03/28 00:45:59;;;;;;;;;;;;;;;13.15;100.00;98797.19;5039475;28;19971;-74
2022/03/28 00:48:26;;;;;;;;;;;;;;;13.38;100.00;98797.59;5056321;28;19965;-73
2022/03/28 00:50:53;;;;;;;;;;;;;;;13.83;100.00;98788.94;5058531;28;19975;-73
2022/03/28 00:53:20;;;;;;;;;;;;;;;14.06;100.00;98801.94;5059895;28;19992;-74
2022/03/28 00:55:46;;;;;;;;;;;;;;;13.97;100.00;98790.09;5040312;28;20305;-74
2022/03/28 00:58:13;;;;;;;;;;;;;;;14.11;100.00;98792.31;5038180;28;19992;-73
2022/03/28 01:00:39;;;;;;;;;;;;;;;13.89;100.00;98790.63;5038400;28;19953;-74
2022/03/28 01:03:07;;;;;;;;;;;;;;;13.93;100.00;98780.94;5041467;28;19936;-73
2022/03/28 01:05:33;;;;;;;;;;;;;;;13.75;100.00;98786.78;5041698;28;20265;-73
2022/03/28 01:08:00;;;;;;;;;;;;;;;13.99;100.00;98779.88;5038636;28;19925;-73
2022/03/28 01:10:26;;;;;;;;;;;;;;;14.16;100.00;98776.19;5056173;28;19975;-73
2022/03/28 01:12:53;;;;;;;;;;;;;;;14.29;98.93;98786.44;5059161;28;19952;-73
2022/03/28 01:15:20;;;;;;;;;;;;;;;14.33;98.21;98782.16;5059999;28;19924;-73
2022/03/28 01:20:32;;;;;;;;;;;;;;;14.49;96.53;98778.44;5038697;28;19925;-73
2022/03/28 01:23:00;;;;;;;;;;;;;;;14.45;96.89;98780.06;5059396;28;19925;-73
2022/03/28 01:25:29;;;;;;;;;;;;;;;14.42;96.75;98769.84;5059471;28;20166;-74
2022/03/28 01:27:56;;;;;;;;;;;;;;;14.39;97.09;98771.16;5056684;28;20894;-74
2022/03/28 01:30:23;;;;;;;;;;;;;;;14.43;96.98;98772.25;5038023;28;19975;-73
2022/03/28 01:32:49;;;;;;;;;;;;;;;14.45;96.83;98763.94;5057789;28;19989;-72
2022/03/28 01:35:25;;;;;;;;;;;;;;;14.38;97.19;98763.38;5059326;28;19998;-73
2022/03/28 01:37:51;;;;;;;;;;;;;;;14.42;96.55;98764.47;5056434;28;19960;-74
2022/03/28 01:40:19;;;;;;;;;;;;;;;14.41;96.95;98768.22;5055208;28;19935;-73
2022/03/28 01:42:48;;;;;;;;;;;;;;;14.36;96.99;98760.16;5056142;28;19935;-72
2022/03/28 01:45:15;;;;;;;;;;;;;;;14.41;96.60;98766.34;5058408;28;19952;-72
2022/03/28 01:47:41;;;;;;;;;;;;;;;14.38;96.90;98766.06;5057412;28;19932;-72
2022/03/28 01:50:08;;;;;;;;;;;;;;;14.38;96.58;98764.19;5037109;28;19948;-74
2022/03/28 01:52:34;;;;;;;;;;;;;;;14.41;96.12;98763.66;5054726;28;19936;-73
2022/03/28 01:55:00;;;;;;;;;;;;;;;14.29;96.77;98763.06;5054738;28;19936;-74
2022/03/28 01:57:28;;;;;;;;;;;;;;;14.27;96.78;98757.13;5054443;28;19925;-74
2022/03/28 01:59:55;;;;;;;;;;;;;;;14.25;97.15;98763.84;5039403;28;19929;-73
2022/03/28 02:02:21;;;;;;;;;;;;;;;14.13;98.33;98755.22;5039987;28;19924;-73
2022/03/28 02:04:47;;;;;;;;;;;;;;;14.00;99.10;98756.53;5038114;28;19980;-73
2022/03/28 02:07:16;;;;;;;;;;;;;;;14.14;98.15;98754.16;5054457;28;20044;-73
2022/03/28 02:09:42;;;;;;;;;;;;;;;14.18;97.88;98749.84;5055235;28;20001;-73
2022/03/28 02:12:09;;;;;;;;;;;;;;;14.21;97.59;98760.06;5053800;28;19929;-73
2022/03/28 02:14:37;;;;;;;;;;;;;;;14.21;97.47;98754.69;5054223;28;20020;-73
2022/03/28 02:17:04;;;;;;;;;;;;;;;14.17;97.50;98761.69;5045861;28;19964;-73
2022/03/28 02:19:30;;;;;;;;;;;;;;;14.15;97.70;98753.88;5046356;28;19992;-73
2022/03/28 02:21:56;;;;;;;;;;;;;;;14.16;97.69;98755.50;5046446;28;20001;-73
2022/03/28 02:24:23;;;;;;;;;;;;;;;14.17;97.59;98753.63;5046215;28;19988;-73
2022/03/28 02:26:49;;;;;;;;;;;;;;;14.17;97.25;98751.75;5046263;28;19931;-73
2022/03/28 02:29:15;;;;;;;;;;;;;;;14.20;97.20;98761.16;5028260;28;20280;-73
2022/03/28 02:31:43;;;;;;;;;;;;;;;14.20;96.98;98751.22;5045849;28;19925;-73
2022/03/28 02:34:09;;;;;;;;;;;;;;;14.20;96.94;98755.78;5045942;28;19936;-73
2022/03/28 02:36:36;;;;;;;;;;;;;;;14.19;96.97;98759.53;5046157;28;19997;-73
2022/03/28 02:39:02;;;;;;;;;;;;;;;14.17;96.88;98759.00;5045829;28;19959;-73
2022/03/28 02:41:28;;;;;;;;;;;;;;;14.11;97.25;98757.38;5045672;28;19992;-74
2022/03/28 02:43:55;;;;;;;;;;;;;;;14.12;96.90;98758.97;5053686;28;20004;-73
2022/03/28 02:46:21;;;;;;;;;;;;;;;14.04;96.82;98753.06;5053803;28;19989;-73
2022/03/28 02:48:49;;;;;;;;;;;;;;;13.99;97.28;98750.34;5055909;28;20496;-73
2022/03/28 02:51:15;;;;;;;;;;;;;;;14.06;96.27;98744.72;5057843;28;20004;-73
2022/03/28 02:53:41;;;;;;;;;;;;;;;14.07;96.15;98746.34;5056469;28;19952;-72
2022/03/28 02:56:08;;;;;;;;;;;;;;;14.07;95.74;98741.78;5053896;28;19924;-73
2022/03/28 02:58:34;;;;;;;;;;;;;;;14.07;95.49;98736.44;5035848;28;20285;-73
2022/03/28 03:01:00;;;;;;;;;;;;;;;13.97;95.75;98736.38;5053632;28;19949;-73
2022/03/28 03:03:27;;;;;;;;;;;;;;;13.98;95.59;98737.19;5053484;28;19980;-74
2022/03/28 03:05:54;;;;;;;;;;;;;;;13.95;95.78;98732.34;5055849;28;19933;-73
2022/03/28 03:08:21;;;;;;;;;;;;;;;13.92;95.57;98732.88;5056842;28;19992;-73
2022/03/28 03:10:47;;;;;;;;;;;;;;;13.89;95.73;98726.16;5055185;28;19925;-73
2022/03/28 03:13:13;;;;;;;;;;;;;;;13.88;95.79;98726.41;5051763;28;19924;-73
2022/03/28 03:15:40;;;;;;;;;;;;;;;13.84;95.83;98720.78;5056201;28;20018;-72
2022/03/28 03:18:06;;;;;;;;;;;;;;;13.84;95.69;98728.81;5053273;28;20012;-73
2022/03/28 03:20:33;;;;;;;;;;;;;;;13.81;95.86;98723.97;5053641;28;19925;-74
2022/03/28 03:23:00;;;;;;;;;;;;;;;13.84;95.86;98720.78;5056717;28;20093;-73
2022/03/28 03:25:27;;;;;;;;;;;;;;;13.76;96.52;98718.59;5060939;28;19929;-74
2022/03/28 03:27:53;;;;;;;;;;;;;;;13.66;97.07;98715.06;5040810;28;20447;-73
2022/03/28 03:30:20;;;;;;;;;;;;;;;13.68;96.99;98710.25;5039619;28;20025;-74
2022/03/28 03:32:47;;;;;;;;;;;;;;;13.74;96.67;98720.72;5059092;28;19931;-73
2022/03/28 03:35:13;;;;;;;;;;;;;;;13.78;96.33;98716.47;5060787;28;19932;-74
2022/03/28 03:37:40;;;;;;;;;;;;;;;13.75;96.59;98703.56;5060200;28;19944;-73
2022/03/28 03:40:10;;;;;;;;;;;;;;;13.77;96.72;98717.50;5057390;28;19929;-74
2022/03/28 03:42:36;;;;;;;;;;;;;;;13.69;97.50;98704.63;5057041;28;19932;-74
2022/03/28 03:45:04;;;;;;;;;;;;;;;13.72;97.29;98709.47;5060543;28;19956;-73
2022/03/28 03:47:30;;;;;;;;;;;;;;;13.75;97.21;98710.81;5060250;28;20041;-74
2022/03/28 03:49:56;;;;;;;;;;;;;;;13.70;97.20;98710.78;5057557;28;20028;-73
2022/03/28 03:52:23;;;;;;;;;;;;;;;13.67;97.15;98709.44;5056989;28;19936;-74
2022/03/28 03:54:49;;;;;;;;;;;;;;;13.69;96.72;98704.63;5058686;28;19997;-73
2022/03/28 03:57:17;;;;;;;;;;;;;;;13.68;96.69;98697.63;5060210;28;19936;-72
2022/03/28 03:59:43;;;;;;;;;;;;;;;13.68;96.48;98700.31;5059016;28;20023;-73
2022/03/28 04:02:09;;;;;;;;;;;;;;;13.64;96.69;98704.63;5056644;28;20376;-72
2022/03/28 04:04:36;;;;;;;;;;;;;;;13.63;96.72;98703.00;5056788;28;19929;-72
2022/03/28 04:07:02;;;;;;;;;;;;;;;13.62;96.41;98693.31;5060495;28;20004;-72
2022/03/28 04:09:29;;;;;;;;;;;;;;;13.58;96.67;98700.28;5060222;28;19996;-72
2022/03/28 04:11:55;;;;;;;;;;;;;;;13.52;97.33;98704.03;5057236;28;19936;-72
2022/03/28 04:14:23;;;;;;;;;;;;;;;13.54;97.05;98696.50;5056839;28;19935;-72
2022/03/28 04:16:49;;;;;;;;;;;;;;;13.50;97.59;98695.41;5040598;28;20013;-71
2022/03/28 04:19:15;;;;;;;;;;;;;;;13.46;97.63;98702.41;5059972;28;20457;-71
2022/03/28 04:21:43;;;;;;;;;;;;;;;13.45;97.80;98698.91;5060283;28;19925;-72
2022/03/28 04:24:09;;;;;;;;;;;;;;;13.22;99.07;98699.31;5059921;28;19925;-72
2022/03/28 04:26:35;;;;;;;;;;;;;;;13.14;100.00;98699.00;5060512;28;19948;-74
2022/03/28 04:29:02;;;;;;;;;;;;;;;12.63;100.00;98693.28;5048964;28;19925;-74
2022/03/28 04:31:30;;;;;;;;;;;;;;;12.07;100.00;98708.06;5048621;28;19925;-74
2022/03/28 04:33:57;;;;;;;;;;;;;;;12.34;100.00;98694.66;5048320;28;19933;-74
2022/03/28 04:36:24;;;;;;;;;;;;;;;12.54;100.00;98694.81;5029421;28;19925;-74
2022/03/28 04:38:50;;;;;;;;;;;;;;;12.63;100.00;98692.47;5047803;28;19925;-74
2022/03/28 04:41:17;;;;;;;;;;;;;;;12.68;100.00;98692.53;5048777;28;19925;-73
2022/03/28 04:43:43;;;;;;;;;;;;;;;12.90;100.00;98690.53;5056770;28;19924;-73
2022/03/28 04:46:09;;;;;;;;;;;;;;;12.86;100.00;98689.44;5057170;28;19980;-74
2022/03/28 04:48:37;;;;;;;;;;;;;;;12.92;100.00;98689.19;5057633;28;19925;-74
2022/03/28 04:51:04;;;;;;;;;;;;;;;13.05;100.00;98695.16;5050293;28;19936;-74
2022/03/28 04:53:31;;;;;;;;;;;;;;;13.10;99.77;98696.03;5050040;28;19956;-73
2022/03/28 04:55:57;;;;;;;;;;;;;;;13.19;98.94;98701.69;5050388;28;19924;-73
2022/03/28 04:58:23;;;;;;;;;;;;;;;13.20;98.70;98708.69;5049314;28;19953;-74
2022/03/28 05:00:51;;;;;;;;;;;;;;;13.17;98.66;98703.84;5039632;28;19925;-73
2022/03/28 05:03:18;;;;;;;;;;;;;;;13.24;97.92;98701.75;5047931;28;19925;-74
2022/03/28 05:05:46;;;;;;;;;;;;;;;13.21;97.46;98703.09;5057389;28;20520;-74
2022/03/28 05:08:12;;;;;;;;;;;;;;;13.18;97.67;98702.78;5041689;28;20019;-74
2022/03/28 05:10:40;;;;;;;;;;;;;;;12.96;97.96;98698.34;5059022;28;20000;-73
2022/03/28 05:13:07;;;;;;;;;;;;;;;12.57;100.00;98694.31;5035427;28;20325;-73
2022/03/28 05:15:33;;;;;;;;;;;;;;;12.53;100.00;98709.31;5059698;28;19924;-73
2022/03/28 05:18:01;;;;;;;;;;;;;;;12.65;100.00;98701.88;5056351;28;19961;-74
2022/03/28 05:20:27;;;;;;;;;;;;;;;12.47;100.00;98704.97;5056147;28;19989;-72
2022/03/28 05:22:55;;;;;;;;;;;;;;;12.71;100.00;98700.03;5040609;28;19925;-72
2022/03/28 05:25:21;;;;;;;;;;;;;;;12.51;100.00;98705.25;5059396;28;19999;-73
2022/03/28 05:27:48;;;;;;;;;;;;;;;12.50;100.00;98690.25;5039243;28;19957;-73
2022/03/28 05:30:15;;;;;;;;;;;;;;;12.11;100.00;98703.81;5037642;28;19955;-73
2022/03/28 05:32:42;;;;;;;;;;;;;;;12.07;100.00;98707.28;5038659;28;19925;-72
2022/03/28 05:35:09;;;;;;;;;;;;;;;12.13;100.00;98701.69;5059443;28;20161;-73
2022/03/28 05:37:36;;;;;;;;;;;;;;;12.14;100.00;98702.50;5059389;28;19925;-73
2022/03/28 05:40:04;;;;;;;;;;;;;;;11.93;100.00;98709.53;5047856;28;19975;-74
2022/03/28 05:42:30;;;;;;;;;;;;;;;11.49;100.00;98699.88;5046669;28;20368;-75
2022/03/28 05:44:57;;;;;;;;;;;;;;;11.67;100.00;98700.38;5039996;28;19933;-73
2022/03/28 05:47:24;;;;;;;;;;;;;;;12.27;100.00;98700.22;5055903;28;19924;-73
2022/03/28 05:49:50;;;;;;;;;;;;;;;12.47;100.00;98704.97;5056384;28;19980;-72
2022/03/28 05:52:17;;;;;;;;;;;;;;;12.58;100.00;98695.13;5037032;28;19929;-73
2022/03/28 05:54:43;;;;;;;;;;;;;;;12.25;100.00;98705.03;5055853;28;20255;-73
2022/03/28 05:57:12;;;;;;;;;;;;;;;12.14;100.00;98699.81;5058228;28;19960;-73
2022/03/28 05:59:38;;;;;;;;;;;;;;;12.28;100.00;98701.03;5040405;28;19932;-72
2022/03/28 06:02:05;;;;;;;;;;;;;;;11.98;100.00;98700.72;5054784;28;19924;-73
2022/03/28 06:04:32;;;;;;;;;;;;;;;11.72;100.00;98699.66;5054393;28;19929;-75
2022/03/28 06:06:58;;;;;;;;;;;;;;;12.03;100.00;98703.47;5039328;28;19925;-73
2022/03/28 06:09:24;;;;;;;;;;;;;;;12.10;100.00;98704.09;5057854;28;20000;-73
2022/03/28 06:11:51;;;;;;;;;;;;;;;11.86;100.00;98698.22;5037758;28;20368;-71
2022/03/28 06:14:19;;;;;;;;;;;;;;;12.36;100.00;98704.06;5036531;28;20194;-73
2022/03/28 06:16:45;;;;;;;;;;;;;;;12.89;100.00;98691.59;5037575;28;19925;-74
2022/03/28 06:19:11;;;;;;;;;;;;;;;12.85;100.00;98706.56;5057546;28;19952;-74
2022/03/28 06:21:38;;;;;;;;;;;;;;;12.99;100.00;98699.69;5057652;28;19936;-74
2022/03/28 06:24:04;;;;;;;;;;;;;;;13.38;100.00;98694.81;5036587;28;19967;-73
2022/03/28 06:26:31;;;;;;;;;;;;;;;13.54;100.00;98696.50;5054360;28;20391;-73
2022/03/28 06:28:57;;;;;;;;;;;;;;;13.66;99.74;98699.78;5039294;28;19959;-73
2022/03/28 06:31:25;;;;;;;;;;;;;;;13.87;98.50;98700.63;5039870;28;19925;-74
2022/03/28 06:33:52;;;;;;;;;;;;;;;14.06;96.81;98702.56;5055397;28;19925;-73
2022/03/28 06:36:18;;;;;;;;;;;;;;;14.10;96.21;98691.28;5054017;28;20398;-73
2022/03/28 06:38:44;;;;;;;;;;;;;;;14.06;96.88;98691.81;5037538;28;19963;-72
2022/03/28 06:41:11;;;;;;;;;;;;;;;14.06;97.08;98697.19;5057603;28;20382;-72
2022/03/28 06:43:37;;;;;;;;;;;;;;;14.20;97.42;98686.75;5057088;28;19974;-73
2022/03/28 06:46:04;;;;;;;;;;;;;;;14.20;97.20;98692.13;5036318;28;19925;-73
2022/03/28 06:48:32;;;;;;;;;;;;;;;14.32;96.61;98684.59;5054016;28;19932;-73
2022/03/28 06:50:58;;;;;;;;;;;;;;;14.22;97.57;98683.78;5039882;28;19931;-73
2022/03/28 06:53:24;;;;;;;;;;;;;;;13.97;99.91;98681.88;5057884;28;19929;-74
2022/03/28 06:55:51;;;;;;;;;;;;;;;14.20;98.96;98683.25;5055739;28;19956;-72
2022/03/28 06:58:17;;;;;;;;;;;;;;;14.14;99.67;98687.00;5035875;28;19964;-73
2022/03/28 07:00:44;;;;;;;;;;;;;;;14.30;98.58;98676.00;5054656;28;19925;-72
2022/03/28 07:03:10;;;;;;;;;;;;;;;14.50;97.18;98681.41;5057313;28;19925;-72
2022/03/28 07:05:38;;;;;;;;;;;;;;;14.42;97.53;98686.53;5057226;28;19932;-72
2022/03/28 07:08:04;;;;;;;;;;;;;;;14.15;100.00;98684.03;5036299;28;19925;-72
2022/03/28 07:10:33;;;;;;;;;;;;;;;14.06;100.00;98686.44;5052792;28;20204;-73
2022/03/28 07:12:59;;;;;;;;;;;;;;;13.78;100.00;98684.25;5056677;28;19938;-71
2022/03/28 07:15:26;;;;;;;;;;;;;;;13.45;100.00;98688.16;5057029;28;19932;-71
2022/03/28 07:17:55;;;;;;;;;;;;;;;13.55;100.00;98676.66;5054634;28;20020;-71
2022/03/28 07:20:22;;;;;;;;;;;;;;;13.14;100.00;98677.56;5053314;28;19989;-72
2022/03/28 07:22:50;;;;;;;;;;;;;;;13.54;100.00;98677.72;5054861;28;20428;-72
2022/03/28 07:25:16;;;;;;;;;;;;;;;13.56;100.00;98678.25;5039029;28;19924;-73
2022/03/28 07:27:42;;;;;;;;;;;;;;;13.01;100.00;98676.09;5037993;28;19932;-73
2022/03/28 07:30:09;;;;;;;;;;;;;;;12.57;100.00;98672.88;5053504;28;20091;-72
2022/03/28 07:32:36;;;;;;;;;;;;;;;12.22;100.00;98680.63;5053144;28;19967;-72
2022/03/28 07:35:03;;;;;;;;;;;;;;;11.82;100.00;98676.50;5053664;28;19952;-72
2022/03/28 07:37:30;;;;;;;;;;;;;;;11.62;100.00;98678.94;5053263;28;19948;-72
2022/03/28 07:39:58;;;;;;;;;;;;;;;12.11;100.00;98670.88;5056024;28;20234;-72
2022/03/28 07:42:24;;;;;;;;;;;;;;;12.81;100.00;98670.63;5033508;28;20045;-72
2022/03/28 07:44:55;;;;;;;;;;;;;;;12.74;100.00;98667.38;5055478;28;19925;-72
2022/03/28 07:47:22;;;;;;;;;;;;;;;12.22;100.00;98676.09;5056495;28;19947;-72
2022/03/28 07:49:48;;;;;;;;;;;;;;;11.83;100.00;98672.75;5055174;28;19984;-72
2022/03/28 07:52:14;;;;;;;;;;;;;;;11.80;100.00;98675.13;5035365;28;19932;-72
2022/03/28 07:54:41;;;;;;;;;;;;;;;11.83;100.00;98661.25;5053825;28;19925;-72
2022/03/28 07:57:08;;;;;;;;;;;;;;;11.72;100.00;98667.56;5039006;28;19992;-72
2022/03/28 07:59:35;;;;;;;;;;;;;;;11.59;100.00;98668.72;5038639;28;20028;-72
2022/03/28 08:02:01;;;;;;;;;;;;;;;11.59;100.00;98660.69;5035455;28;19931;-72
2022/03/28 08:04:27;;;;;;;;;;;;;;;11.70;100.00;98662.44;5053375;28;19948;-72
2022/03/28 08:06:54;;;;;;;;;;;;;;;11.65;100.00;98654.34;5055634;28;19956;-72
2022/03/28 08:09:20;;;;;;;;;;;;;;;11.51;100.00;98658.50;5038659;28;19936;-72
2022/03/28 08:11:47;;;;;;;;;;;;;;;11.58;100.00;98658.25;5057282;28;19932;-71
2022/03/28 08:14:14;;;;;;;;;;;;;;;11.81;100.00;98648.13;5056934;28;19952;-71
2022/03/28 08:16:41;;;;;;;;;;;;;;;11.89;100.00;98653.00;5057344;28;19931;-72
2022/03/28 08:19:07;;;;;;;;;;;;;;;11.99;100.00;98648.81;5060008;28;20002;-72
2022/03/28 08:21:34;;;;;;;;;;;;;;;11.81;100.00;98648.13;5060414;28;19925;-72
2022/03/28 08:24:00;;;;;;;;;;;;;;;12.09;100.00;98643.56;5056825;28;19925;-72
2022/03/28 08:26:26;;;;;;;;;;;;;;;11.87;100.00;98639.09;5039255;28;19925;-72
2022/03/28 08:28:53;;;;;;;;;;;;;;;11.79;100.00;98644.09;5059241;28;19964;-71
2022/03/28 08:31:21;;;;;;;;;;;;;;;11.93;100.00;98628.41;5060317;28;19936;-73
2022/03/28 08:33:49;;;;;;;;;;;;;;;12.07;100.00;98632.31;5040775;28;19929;-74
2022/03/28 08:36:16;;;;;;;;;;;;;;;12.18;100.00;98631.31;5056329;28;19989;-73
2022/03/28 08:38:42;;;;;;;;;;;;;;;12.22;100.00;98629.75;5057194;28;19972;-73
2022/03/28 08:41:12;;;;;;;;;;;;;;;12.37;100.00;98640.59;5058423;28;19960;-73
2022/03/28 08:43:39;;;;;;;;;;;;;;;12.44;100.00;98633.94;5059042;28;19936;-72
2022/03/28 08:46:08;;;;;;;;;;;;;;;12.33;100.00;98632.25;5056254;28;20028;-73
2022/03/28 08:48:38;;;;;;;;;;;;;;;12.78;100.00;98630.94;5056059;28;19987;-73
2022/03/28 08:51:05;;;;;;;;;;;;;;;12.94;100.00;98630.75;5055980;28;19925;-72
2022/03/28 08:53:31;;;;;;;;;;;;;;;13.05;100.00;98628.13;5055525;28;19936;-72
2022/03/28 08:55:58;;;;;;;;;;;;;;;13.18;100.00;98619.66;5058602;28;19925;-72
2022/03/28 08:58:24;;;;;;;;;;;;;;;13.13;100.00;98623.09;5059462;28;19963;-73
2022/03/28 09:00:50;;;;;;;;;;;;;;;13.10;100.00;98618.25;5057208;28;19925;-73
2022/03/28 09:03:17;;;;;;;;;;;;;;;13.18;100.00;98614.28;5055699;28;20529;-71
2022/03/28 09:05:49;;;;;;;;;;;;;;;13.14;100.00;98618.53;5056534;28;19996;-73
2022/03/28 09:08:16;;;;;;;;;;;;;;;13.25;100.00;98612.97;5059239;28;19935;-72
2022/03/28 09:10:45;;;;;;;;;;;;;;;13.28;100.00;98609.75;5058334;28;19925;-72
2022/03/28 09:13:12;;;;;;;;;;;;;;;13.32;100.00;98610.03;5035336;28;19968;-72
2022/03/28 09:15:43;;;;;;;;;;;;;;;13.44;100.00;98602.56;5058931;28;19954;-71
2022/03/28 09:18:19;;;;;;;;;;;;;;;13.57;100.00;98601.25;5056077;28;19945;-73
2022/03/28 09:20:50;;;;;;;;;;;;;;;13.65;100.00;98593.47;5057305;28;19925;-73
2022/03/28 09:23:25;;;;;;;;;;;;;;;13.73;100.00;98598.34;5040898;28;19967;-72
2022/03/28 09:25:51;;;;;;;;;;;;;;;13.61;100.00;98597.78;5056937;28;19992;-72
2022/03/28 09:28:23;;;;;;;;;;;;;;;13.79;100.00;98591.09;5055211;28;19975;-73
2022/03/28 09:30:50;;;;;;;;;;;;;;;13.93;100.00;98584.91;5057115;28;20585;-72
2022/03/28 09:33:18;;;;;;;;;;;;;;;13.95;100.00;98582.78;5058530;28;20293;-72
2022/03/28 09:35:46;;;;;;;;;;;;;;;14.07;100.00;98583.31;5057504;28;19955;-72
2022/03/28 09:38:18;;;;;;;;;;;;;;;14.19;100.00;98577.66;5054990;28;19975;-72
2022/03/28 09:40:45;;;;;;;;;;;;;;;14.30;100.00;98571.19;5056294;28;19960;-73
2022/03/28 09:43:16;;;;;;;;;;;;;;;14.37;100.00;98570.97;5048114;28;19992;-74
2022/03/28 09:45:46;;;;;;;;;;;;;;;14.50;100.00;98565.03;5057630;28;19936;-72
2022/03/28 09:48:14;;;;;;;;;;;;;;;14.52;100.00;98562.88;5055077;28;19925;-72
2022/03/28 09:50:42;;;;;;;;;;;;;;;14.54;99.04;98560.72;5055545;28;19988;-73
2022/03/28 09:53:12;;;;;;;;;;;;;;;14.55;98.97;98555.06;5058110;28;19960;-72
2022/03/28 09:55:48;;;;;;;;;;;;;;;14.72;98.97;98543.19;5056412;28;20007;-72
2022/03/28 09:58:29;;;;;;;;;;;;;;;14.86;98.88;98539.63;5055015;28;19925;-72
2022/03/28 10:00:56;;;;;;;;;;;;;;;15.12;97.00;98538.47;5057399;28;19925;-73
2022/03/28 10:03:23;;;;;;;;;;;;;;;15.27;95.70;98526.00;5057826;28;19988;-73
2022/03/28 10:05:49;;;;;;;;;;;;;;;15.25;95.04;98533.56;5055947;28;19960;-73
2022/03/28 10:08:16;;;;;;;;;;;;;;;15.26;94.92;98513.59;5054568;28;19989;-72
2022/03/28 10:10:43;;;;;;;;;;;;;;;15.46;95.16;98521.56;5037519;28;19933;-73
2022/03/28 10:13:11;;;;;;;;;;;;;;;15.69;94.87;98522.81;5040106;28;20457;-72
2022/03/28 10:15:39;;;;;;;;;;;;;;;15.82;92.66;98512.16;5057932;28;19924;-73
2022/03/28 10:18:05;;;;;;;;;;;;;;;15.81;92.56;98512.47;5037305;28;19940;-72
2022/03/28 10:20:32;;;;;;;;;;;;;;;15.95;91.53;98503.44;5037382;28;19928;-72
2022/03/28 10:22:59;;;;;;;;;;;;;;;15.91;91.38;98490.81;5058144;28;19963;-71
2022/03/28 10:25:26;;;;;;;;;;;;;;;15.99;90.02;98485.63;5058367;28;19971;-72
2022/03/28 10:27:53;;;;;;;;;;;;;;;16.11;89.78;98485.25;5038527;28;19936;-71
2022/03/28 10:30:24;;;;;;;;;;;;;;;16.14;88.94;98487.38;5054930;28;19992;-72
2022/03/28 10:33:05;;;;;;;;;;;;;;;16.23;88.30;98476.78;5038810;28;20024;-72
2022/03/28 10:38:16;;;;;;;;;;;;;;;16.27;83.24;98461.66;5055398;28;19925;-73
2022/03/28 10:40:52;;;;;;;;;;;;;;;16.38;83.07;98460.44;5037870;28;20448;-73
2022/03/28 10:43:19;;;;;;;;;;;;;;;16.51;83.83;98459.75;5058761;28;19979;-72
2022/03/28 10:45:49;;;;;;;;;;;;;;;16.67;81.73;98453.94;5057370;28;19925;-73
2022/03/28 10:48:16;;;;;;;;;;;;;;;16.85;82.70;98449.63;5054232;28;20288;-73
2022/03/28 10:50:48;;;;;;;;;;;;;;;16.99;80.45;98438.94;5054906;28;19961;-73
2022/03/28 10:53:16;;;;;;;;;;;;;;;17.08;80.13;98434.50;5057772;28;19993;-73
2022/03/28 10:55:47;;;;;;;;;;;;;;;17.17;79.58;98430.03;5039007;28;19924;-73
2022/03/28 10:58:15;;;;;;;;;;;;;;;17.14;81.79;98423.31;5036958;28;19985;-73
2022/03/28 11:01:01;;;;;;;;;;;;;;;17.13;82.31;98415.50;5037436;28;19956;-74
2022/03/28 11:03:36;;;;;;;;;;;;;;;17.23;79.95;98413.47;5057885;28;20217;-73
2022/03/28 11:06:02;;;;;;;;;;;;;;;17.38;76.16;98411.63;5053112;28;19932;-73
2022/03/28 11:08:32;;;;;;;;;;;;;;;17.44;76.46;98405.03;5036131;28;20021;-72
2022/03/28 11:11:19;;;;;;;;;;;;;;;17.41;79.02;98390.22;5056925;28;19955;-73
2022/03/28 11:13:56;;;;;;;;;;;;;;;17.36;77.53;98392.22;5055898;28;19963;-72
2022/03/28 11:16:38;;;;;;;;;;;;;;;17.52;67.57;98382.75;5053825;28;19925;-72
2022/03/28 11:19:23;;;;;;;;;;;;;;;17.53;65.84;98384.34;5052410;28;19925;-73
2022/03/28 11:22:00;;;;;;;;;;;;;;;17.59;67.00;98372.41;5055311;28;19929;-73
2022/03/28 11:24:46;;;;;;;;;;;;;;;17.56;71.19;98364.91;5039122;28;19925;-73
2022/03/28 11:27:13;;;;;;;;;;;;;;;17.76;68.94;98359.16;5053485;28;19971;-73
2022/03/28 11:29:40;;;;;;;;;;;;;;;17.83;69.65;98348.72;5053995;28;20313;-73
2022/03/28 11:32:06;;;;;;;;;;;;;;;17.73;70.25;98349.72;5039201;28;19986;-72
2022/03/28 11:34:34;;;;;;;;;;;;;;;17.76;69.60;98348.34;5056968;28;19928;-73
2022/03/28 11:37:01;;;;;;;;;;;;;;;17.84;66.95;98342.22;5053645;28;19936;-73
2022/03/28 11:39:29;;;;;;;;;;;;;;;17.90;61.11;98332.94;5053484;28;19960;-73
2022/03/28 11:41:56;;;;;;;;;;;;;;;18.01;58.07;98339.72;5054586;28;19936;-73
2022/03/28 11:44:24;;;;;;;;;;;;;;;17.98;57.30;98334.91;5053878;28;19925;-73
2022/03/28 11:46:54;;;;;;;;;;;;;;;17.93;59.97;98326.91;5041538;28;19952;-73
2022/03/28 11:49:20;;;;;;;;;;;;;;;18.02;59.91;98329.72;5043346;28;19951;-73
2022/03/28 11:51:49;;;;;;;;;;;;;;;17.98;60.86;98326.81;5059864;28;19932;-73
2022/03/28 11:54:16;;;;;;;;;;;;;;;18.06;56.85;98315.31;5039937;28;20538;-74
2022/03/28 11:59:24;;;;;;;;;;;;;;;18.19;59.98;98303.69;5060292;28;19925;-73
2022/03/28 12:01:56;;;;;;;;;;;;;;;18.11;59.14;98298.19;5057855;28;19924;-73
2022/03/28 12:04:22;;;;;;;;;;;;;;;18.20;57.34;98286.34;5057680;28;20041;-73
2022/03/28 12:06:51;;;;;;;;;;;;;;;18.16;59.59;98277.28;5040993;28;19936;-74
2022/03/28 12:09:18;;;;;;;;;;;;;;;18.29;56.56;98265.59;5061276;28;19924;-73
2022/03/28 12:11:47;;;;;;;;;;;;;;;18.12;58.17;98259.25;5041739;28;19992;-73
2022/03/28 12:14:14;;;;;;;;;;;;;;;18.38;55.98;98263.00;5030683;28;20021;-73
2022/03/28 12:16:47;;;;;;;;;;;;;;;18.48;50.14;98251.13;5056857;28;19932;-74
2022/03/28 12:19:17;;;;;;;;;;;;;;;18.21;55.09;98252.81;5060182;28;19925;-74
2022/03/28 12:21:44;;;;;;;;;;;;;;;18.37;56.01;98242.47;5059004;28;19932;-74
2022/03/28 12:24:12;;;;;;;;;;;;;;;18.41;53.79;98243.47;5056986;28;19929;-74
2022/03/28 12:26:42;;;;;;;;;;;;;;;18.09;56.66;98233.63;5056445;28;19993;-74
2022/03/28 12:29:11;;;;;;;;;;;;;;;18.44;51.90;98229.31;5059938;28;20350;-74
2022/03/28 12:31:37;;;;;;;;;;;;;;;18.48;51.59;98234.91;5059772;28;19955;-74
2022/03/28 12:34:04;;;;;;;;;;;;;;;18.62;54.38;98219.47;5038434;28;19968;-74
2022/03/28 12:36:32;;;;;;;;;;;;;;;18.24;55.65;98211.66;5056262;28;19929;-74
2022/03/28 12:38:59;;;;;;;;;;;;;;;18.29;55.93;98211.53;5041273;28;19935;-74
2022/03/28 12:41:27;;;;;;;;;;;;;;;18.34;55.88;98200.63;5059904;28;19936;-74
2022/03/28 12:43:54;;;;;;;;;;;;;;;18.52;54.95;98211.59;5057494;28;19951;-73
2022/03/28 12:46:21;;;;;;;;;;;;;;;18.34;54.98;98203.31;5038413;28;20020;-73
2022/03/28 12:48:49;;;;;;;;;;;;;;;18.68;50.55;98191.97;5039821;28;19996;-74
2022/03/28 12:51:21;;;;;;;;;;;;;;;18.23;53.16;98193.81;5059645;28;20230;-73
2022/03/28 12:53:48;;;;;;;;;;;;;;;18.33;53.78;98184.69;5058033;28;20026;-74